sensor_id;sensor_type;location;lat;lon;timestamp;temperature;humidity
71173;DHT22;58875;51.996;4.504;2023-05-29T00:01:51;12.74;73.76
71173;DHT22;58875;51.996;4.504;2023-05-29T00:04:17;12.73;73.88
71173;DHT22;58875;51.996;4.504;2023-05-29T00:06:43;12.68;73.95
71173;DHT22;58875;51.996;4.504;2023-05-29T00:09:09;12.58;74.13
71173;DHT22;58875;51.996;4.504;2023-05-29T00:11:34;12.60;74.30
71173;DHT22;58875;51.996;4.504;2023-05-29T00:14:00;12.57;74.13
71173;DHT22;58875;51.996;4.504;2023-05-29T00:16:25;12.57;74.19
71173;DHT22;58875;51.996;4.504;2023-05-29T00:18:51;12.61;74.32
71173;DHT22;58875;51.996;4.504;2023-05-29T00:21:20;12.58;74.29
71173;DHT22;58875;51.996;4.504;2023-05-29T00:23:49;12.56;74.23
71173;DHT22;58875;51.996;4.504;2023-05-29T00:26:25;12.64;74.18
71173;DHT22;58875;51.996;4.504;2023-05-29T00:28:50;12.71;74.10
71173;DHT22;58875;51.996;4.504;2023-05-29T00:31:16;12.57;74.29
71173;DHT22;58875;51.996;4.504;2023-05-29T00:33:42;12.57;74.24
71173;DHT22;58875;51.996;4.504;2023-05-29T00:36:07;12.56;74.47
71173;DHT22;58875;51.996;4.504;2023-05-29T00:38:33;12.53;74.43
71173;DHT22;58875;51.996;4.504;2023-05-29T00:40:58;12.50;74.48
71173;DHT22;58875;51.996;4.504;2023-05-29T00:43:24;12.57;74.66
71173;DHT22;58875;51.996;4.504;2023-05-29T00:45:50;12.57;74.51
71173;DHT22;58875;51.996;4.504;2023-05-29T00:48:19;12.63;74.51
71173;DHT22;58875;51.996;4.504;2023-05-29T00:50:45;12.58;74.38
71173;DHT22;58875;51.996;4.504;2023-05-29T00:53:11;12.53;74.54
71173;DHT22;58875;51.996;4.504;2023-05-29T00:55:37;12.51;74.63
71173;DHT22;58875;51.996;4.504;2023-05-29T00:58:05;12.47;74.59
71173;DHT22;58875;51.996;4.504;2023-05-29T01:00:31;12.47;74.84
71173;DHT22;58875;51.996;4.504;2023-05-29T01:02:58;12.40;74.69
71173;DHT22;58875;51.996;4.504;2023-05-29T01:05:28;12.37;75.16
71173;DHT22;58875;51.996;4.504;2023-05-29T01:07:54;12.30;75.01
71173;DHT22;58875;51.996;4.504;2023-05-29T01:10:20;12.29;75.06
71173;DHT22;58875;51.996;4.504;2023-05-29T01:13:06;12.33;75.34
71173;DHT22;58875;51.996;4.504;2023-05-29T01:15:49;12.32;74.98
71173;DHT22;58875;51.996;4.504;2023-05-29T01:18:27;12.30;75.17
71173;DHT22;58875;51.996;4.504;2023-05-29T01:21:08;12.29;75.11
71173;DHT22;58875;51.996;4.504;2023-05-29T01:23:52;12.33;74.70
71173;DHT22;58875;51.996;4.504;2023-05-29T01:26:41;12.29;74.60
71173;DHT22;58875;51.996;4.504;2023-05-29T01:29:10;12.32;74.25
71173;DHT22;58875;51.996;4.504;2023-05-29T01:31:42;12.32;74.38
71173;DHT22;58875;51.996;4.504;2023-05-29T01:34:09;12.34;74.08
71173;DHT22;58875;51.996;4.504;2023-05-29T01:36:34;12.26;73.89
71173;DHT22;58875;51.996;4.504;2023-05-29T01:39:02;12.22;74.13
71173;DHT22;58875;51.996;4.504;2023-05-29T01:41:50;12.19;74.01
71173;DHT22;58875;51.996;4.504;2023-05-29T01:44:17;12.26;73.61
71173;DHT22;58875;51.996;4.504;2023-05-29T01:46:43;12.27;73.55
71173;DHT22;58875;51.996;4.504;2023-05-29T01:49:12;12.25;73.74
71173;DHT22;58875;51.996;4.504;2023-05-29T01:51:39;12.29;73.33
71173;DHT22;58875;51.996;4.504;2023-05-29T01:54:06;12.27;73.26
71173;DHT22;58875;51.996;4.504;2023-05-29T01:56:32;12.29;73.54
71173;DHT22;58875;51.996;4.504;2023-05-29T01:59:00;12.29;73.22
71173;DHT22;58875;51.996;4.504;2023-05-29T02:01:27;12.25;73.19
71173;DHT22;58875;51.996;4.504;2023-05-29T02:03:52;12.25;73.46
71173;DHT22;58875;51.996;4.504;2023-05-29T02:06:18;12.29;73.50
71173;DHT22;58875;51.996;4.504;2023-05-29T02:08:44;12.29;73.03
71173;DHT22;58875;51.996;4.504;2023-05-29T02:11:10;12.32;72.91
71173;DHT22;58875;51.996;4.504;2023-05-29T02:13:35;12.33;73.05
71173;DHT22;58875;51.996;4.504;2023-05-29T02:16:01;12.33;72.91
71173;DHT22;58875;51.996;4.504;2023-05-29T02:18:26;12.23;72.89
71173;DHT22;58875;51.996;4.504;2023-05-29T02:20:52;12.17;73.22
71173;DHT22;58875;51.996;4.504;2023-05-29T02:23:18;12.22;73.28
71173;DHT22;58875;51.996;4.504;2023-05-29T02:25:49;12.29;73.32
71173;DHT22;58875;51.996;4.504;2023-05-29T02:28:14;12.23;73.15
71173;DHT22;58875;51.996;4.504;2023-05-29T02:30:40;12.12;73.34
71173;DHT22;58875;51.996;4.504;2023-05-29T02:33:06;12.20;73.59
71173;DHT22;58875;51.996;4.504;2023-05-29T02:35:31;12.33;73.13
71173;DHT22;58875;51.996;4.504;2023-05-29T02:37:57;12.30;72.94
71173;DHT22;58875;51.996;4.504;2023-05-29T02:40:22;12.27;72.93
71173;DHT22;58875;51.996;4.504;2023-05-29T02:42:51;12.30;72.98
71173;DHT22;58875;51.996;4.504;2023-05-29T02:45:17;12.29;73.07
71173;DHT22;58875;51.996;4.504;2023-05-29T02:47:43;12.16;73.42
71173;DHT22;58875;51.996;4.504;2023-05-29T02:50:09;12.27;73.52
71173;DHT22;58875;51.996;4.504;2023-05-29T02:52:35;12.27;72.98
71173;DHT22;58875;51.996;4.504;2023-05-29T02:55:02;12.29;72.93
71173;DHT22;58875;51.996;4.504;2023-05-29T02:57:29;12.30;73.12
71173;DHT22;58875;51.996;4.504;2023-05-29T02:59:54;12.29;72.96
71173;DHT22;58875;51.996;4.504;2023-05-29T03:02:21;12.33;73.00
71173;DHT22;58875;51.996;4.504;2023-05-29T03:04:47;12.34;72.72
71173;DHT22;58875;51.996;4.504;2023-05-29T03:07:15;12.32;72.76
71173;DHT22;58875;51.996;4.504;2023-05-29T03:09:41;12.30;72.70
71173;DHT22;58875;51.996;4.504;2023-05-29T03:12:06;12.33;72.98
71173;DHT22;58875;51.996;4.504;2023-05-29T03:14:32;12.40;72.97
71173;DHT22;58875;51.996;4.504;2023-05-29T03:17:04;12.39;72.30
71173;DHT22;58875;51.996;4.504;2023-05-29T03:19:30;12.47;72.32
71173;DHT22;58875;51.996;4.504;2023-05-29T03:21:55;12.34;72.38
71173;DHT22;58875;51.996;4.504;2023-05-29T03:24:21;12.29;72.65
71173;DHT22;58875;51.996;4.504;2023-05-29T03:26:49;12.29;72.59
71173;DHT22;58875;51.996;4.504;2023-05-29T03:29:15;12.30;72.59
71173;DHT22;58875;51.996;4.504;2023-05-29T03:31:42;12.29;72.70
71173;DHT22;58875;51.996;4.504;2023-05-29T03:34:07;12.34;72.53
71173;DHT22;58875;51.996;4.504;2023-05-29T03:36:33;12.48;72.68
71173;DHT22;58875;51.996;4.504;2023-05-29T03:38:58;12.54;72.33
71173;DHT22;58875;51.996;4.504;2023-05-29T03:41:24;12.58;72.45
71173;DHT22;58875;51.996;4.504;2023-05-29T03:43:50;12.51;72.35
71173;DHT22;58875;51.996;4.504;2023-05-29T03:46:16;12.44;72.95
71173;DHT22;58875;51.996;4.504;2023-05-29T03:48:42;12.41;72.98
71173;DHT22;58875;51.996;4.504;2023-05-29T03:51:07;12.30;73.60
71173;DHT22;58875;51.996;4.504;2023-05-29T03:53:33;12.33;73.81
71173;DHT22;58875;51.996;4.504;2023-05-29T03:55:58;12.30;73.93
71173;DHT22;58875;51.996;4.504;2023-05-29T03:58:24;12.17;73.84
71173;DHT22;58875;51.996;4.504;2023-05-29T04:00:49;12.22;73.62
71173;DHT22;58875;51.996;4.504;2023-05-29T04:03:15;12.17;73.23
71173;DHT22;58875;51.996;4.504;2023-05-29T04:05:40;12.12;73.23
71173;DHT22;58875;51.996;4.504;2023-05-29T04:08:06;12.23;73.11
71173;DHT22;58875;51.996;4.504;2023-05-29T04:10:34;12.12;72.60
71173;DHT22;58875;51.996;4.504;2023-05-29T04:13:00;12.10;72.80
71173;DHT22;58875;51.996;4.504;2023-05-29T04:15:29;11.96;72.79
71173;DHT22;58875;51.996;4.504;2023-05-29T04:17:55;11.89;73.19
71173;DHT22;58875;51.996;4.504;2023-05-29T04:20:21;11.96;73.20
71173;DHT22;58875;51.996;4.504;2023-05-29T04:22:47;11.92;72.67
71173;DHT22;58875;51.996;4.504;2023-05-29T04:25:12;11.86;72.76
71173;DHT22;58875;51.996;4.504;2023-05-29T04:27:38;11.81;72.49
71173;DHT22;58875;51.996;4.504;2023-05-29T04:30:05;11.78;72.46
71173;DHT22;58875;51.996;4.504;2023-05-29T04:32:32;11.83;72.75
71173;DHT22;58875;51.996;4.504;2023-05-29T04:34:59;11.82;72.03
71173;DHT22;58875;51.996;4.504;2023-05-29T04:37:31;11.72;72.16
71173;DHT22;58875;51.996;4.504;2023-05-29T04:40:03;11.61;72.64
71173;DHT22;58875;51.996;4.504;2023-05-29T04:42:32;11.75;72.51
71173;DHT22;58875;51.996;4.504;2023-05-29T04:44:59;11.88;71.87
71173;DHT22;58875;51.996;4.504;2023-05-29T04:47:26;11.92;72.05
71173;DHT22;58875;51.996;4.504;2023-05-29T04:49:51;11.95;71.49
71173;DHT22;58875;51.996;4.504;2023-05-29T04:52:17;12.05;71.33
71173;DHT22;58875;51.996;4.504;2023-05-29T04:54:42;12.05;70.58
71173;DHT22;58875;51.996;4.504;2023-05-29T04:57:08;12.02;70.64
71173;DHT22;58875;51.996;4.504;2023-05-29T04:59:34;12.10;71.36
71173;DHT22;58875;51.996;4.504;2023-05-29T05:02:00;12.02;70.38
71173;DHT22;58875;51.996;4.504;2023-05-29T05:04:26;11.99;70.79
71173;DHT22;58875;51.996;4.504;2023-05-29T05:06:51;12.09;70.20
71173;DHT22;58875;51.996;4.504;2023-05-29T05:09:17;11.98;70.27
71173;DHT22;58875;51.996;4.504;2023-05-29T05:11:43;11.96;70.68
71173;DHT22;58875;51.996;4.504;2023-05-29T05:14:08;12.08;70.77
71173;DHT22;58875;51.996;4.504;2023-05-29T05:16:34;12.16;70.18
71173;DHT22;58875;51.996;4.504;2023-05-29T05:18:59;12.22;70.05
71173;DHT22;58875;51.996;4.504;2023-05-29T05:21:25;12.17;69.71
71173;DHT22;58875;51.996;4.504;2023-05-29T05:23:52;12.12;69.73
71173;DHT22;58875;51.996;4.504;2023-05-29T05:26:17;12.23;69.45
71173;DHT22;58875;51.996;4.504;2023-05-29T05:28:42;12.26;70.13
71173;DHT22;58875;51.996;4.504;2023-05-29T05:31:08;12.37;69.32
71173;DHT22;58875;51.996;4.504;2023-05-29T05:35:59;12.64;68.62
71173;DHT22;58875;51.996;4.504;2023-05-29T05:38:25;12.57;68.42
71173;DHT22;58875;51.996;4.504;2023-05-29T05:40:50;12.67;68.83
71173;DHT22;58875;51.996;4.504;2023-05-29T05:43:16;12.64;68.20
71173;DHT22;58875;51.996;4.504;2023-05-29T05:45:41;12.68;68.45
71173;DHT22;58875;51.996;4.504;2023-05-29T05:48:08;12.68;68.19
71173;DHT22;58875;51.996;4.504;2023-05-29T05:50:34;12.85;68.20
71173;DHT22;58875;51.996;4.504;2023-05-29T05:53:00;12.91;67.97
71173;DHT22;58875;51.996;4.504;2023-05-29T05:55:25;13.08;67.86
71173;DHT22;58875;51.996;4.504;2023-05-29T05:57:53;13.02;67.49
71173;DHT22;58875;51.996;4.504;2023-05-29T06:00:19;13.14;67.68
71173;DHT22;58875;51.996;4.504;2023-05-29T06:02:44;13.39;68.14
71173;DHT22;58875;51.996;4.504;2023-05-29T06:07:37;13.65;66.49
71173;DHT22;58875;51.996;4.504;2023-05-29T06:10:03;13.58;65.83
71173;DHT22;58875;51.996;4.504;2023-05-29T06:12:29;13.38;66.96
71173;DHT22;58875;51.996;4.504;2023-05-29T06:14:55;13.38;66.88
71173;DHT22;58875;51.996;4.504;2023-05-29T06:17:20;13.62;67.28
71173;DHT22;58875;51.996;4.504;2023-05-29T06:19:47;13.35;66.69
71173;DHT22;58875;51.996;4.504;2023-05-29T06:22:14;13.56;67.01
71173;DHT22;58875;51.996;4.504;2023-05-29T06:24:40;13.87;67.02
71173;DHT22;58875;51.996;4.504;2023-05-29T06:27:06;13.87;66.23
71173;DHT22;58875;51.996;4.504;2023-05-29T06:29:33;13.87;66.52
71173;DHT22;58875;51.996;4.504;2023-05-29T06:31:58;14.03;66.24
71173;DHT22;58875;51.996;4.504;2023-05-29T06:34:24;13.74;65.40
71173;DHT22;58875;51.996;4.504;2023-05-29T06:36:50;13.76;65.87
71173;DHT22;58875;51.996;4.504;2023-05-29T06:39:15;13.71;66.40
71173;DHT22;58875;51.996;4.504;2023-05-29T06:41:41;13.77;65.25
71173;DHT22;58875;51.996;4.504;2023-05-29T06:44:07;13.67;65.26
71173;DHT22;58875;51.996;4.504;2023-05-29T06:46:32;13.65;65.84
71173;DHT22;58875;51.996;4.504;2023-05-29T06:48:58;13.63;65.91
71173;DHT22;58875;51.996;4.504;2023-05-29T06:51:23;13.79;65.21
71173;DHT22;58875;51.996;4.504;2023-05-29T06:53:49;14.03;66.01
71173;DHT22;58875;51.996;4.504;2023-05-29T06:56:14;14.07;64.18
71173;DHT22;58875;51.996;4.504;2023-05-29T06:58:40;13.94;64.25
71173;DHT22;58875;51.996;4.504;2023-05-29T07:01:06;14.01;64.30
71173;DHT22;58875;51.996;4.504;2023-05-29T07:03:32;14.18;64.06
71173;DHT22;58875;51.996;4.504;2023-05-29T07:05:57;14.06;64.33
71173;DHT22;58875;51.996;4.504;2023-05-29T07:08:24;14.18;64.80
71173;DHT22;58875;51.996;4.504;2023-05-29T07:10:50;14.52;63.96
71173;DHT22;58875;51.996;4.504;2023-05-29T07:13:16;14.65;61.92
71173;DHT22;58875;51.996;4.504;2023-05-29T07:15:43;14.58;62.40
71173;DHT22;58875;51.996;4.504;2023-05-29T07:18:09;14.57;63.14
71173;DHT22;58875;51.996;4.504;2023-05-29T07:20:36;14.79;62.62
71173;DHT22;58875;51.996;4.504;2023-05-29T07:23:01;15.06;62.62
71173;DHT22;58875;51.996;4.504;2023-05-29T07:25:27;15.29;58.98
71173;DHT22;58875;51.996;4.504;2023-05-29T07:27:53;15.04;58.17
71173;DHT22;58875;51.996;4.504;2023-05-29T07:30:18;15.02;59.49
71173;DHT22;58875;51.996;4.504;2023-05-29T07:32:44;15.26;58.57
71173;DHT22;58875;51.996;4.504;2023-05-29T07:35:10;15.24;57.58
71173;DHT22;58875;51.996;4.504;2023-05-29T07:37:36;15.03;59.04
71173;DHT22;58875;51.996;4.504;2023-05-29T07:40:02;15.13;58.47
71173;DHT22;58875;51.996;4.504;2023-05-29T07:42:32;15.14;59.36
71173;DHT22;58875;51.996;4.504;2023-05-29T07:44:57;15.18;59.81
71173;DHT22;58875;51.996;4.504;2023-05-29T07:47:23;15.31;59.82
71173;DHT22;58875;51.996;4.504;2023-05-29T07:49:49;15.62;58.96
71173;DHT22;58875;51.996;4.504;2023-05-29T07:52:17;15.49;59.29
71173;DHT22;58875;51.996;4.504;2023-05-29T07:54:48;15.55;59.28
71173;DHT22;58875;51.996;4.504;2023-05-29T07:57:14;15.57;57.43
71173;DHT22;58875;51.996;4.504;2023-05-29T07:59:42;15.20;58.51
71173;DHT22;58875;51.996;4.504;2023-05-29T08:02:08;14.96;59.70
71173;DHT22;58875;51.996;4.504;2023-05-29T08:04:34;15.03;58.91
71173;DHT22;58875;51.996;4.504;2023-05-29T08:07:02;14.93;59.31
71173;DHT22;58875;51.996;4.504;2023-05-29T08:09:29;14.90;58.87
71173;DHT22;58875;51.996;4.504;2023-05-29T08:11:54;15.06;58.48
71173;DHT22;58875;51.996;4.504;2023-05-29T08:14:20;15.43;57.82
71173;DHT22;58875;51.996;4.504;2023-05-29T08:16:46;15.60;57.85
71173;DHT22;58875;51.996;4.504;2023-05-29T08:19:11;15.71;56.73
71173;DHT22;58875;51.996;4.504;2023-05-29T08:21:37;16.06;56.78
71173;DHT22;58875;51.996;4.504;2023-05-29T08:24:04;16.06;56.56
71173;DHT22;58875;51.996;4.504;2023-05-29T08:26:32;16.23;57.39
71173;DHT22;58875;51.996;4.504;2023-05-29T08:28:58;16.33;55.34
71173;DHT22;58875;51.996;4.504;2023-05-29T08:31:23;16.04;55.72
71173;DHT22;58875;51.996;4.504;2023-05-29T08:33:51;15.95;56.61
71173;DHT22;58875;51.996;4.504;2023-05-29T08:36:17;15.88;56.36
71173;DHT22;58875;51.996;4.504;2023-05-29T08:38:43;16.22;56.13
71173;DHT22;58875;51.996;4.504;2023-05-29T08:41:27;16.52;55.27
71173;DHT22;58875;51.996;4.504;2023-05-29T08:43:56;16.56;55.43
71173;DHT22;58875;51.996;4.504;2023-05-29T08:46:23;16.67;54.17
71173;DHT22;58875;51.996;4.504;2023-05-29T08:48:49;16.74;54.22
71173;DHT22;58875;51.996;4.504;2023-05-29T08:51:19;17.00;53.38
71173;DHT22;58875;51.996;4.504;2023-05-29T08:53:47;17.12;51.75
71173;DHT22;58875;51.996;4.504;2023-05-29T08:56:13;17.00;53.52
71173;DHT22;58875;51.996;4.504;2023-05-29T08:58:38;16.97;52.68
71173;DHT22;58875;51.996;4.504;2023-05-29T09:01:05;16.90;52.19
71173;DHT22;58875;51.996;4.504;2023-05-29T09:03:30;16.91;50.29
71173;DHT22;58875;51.996;4.504;2023-05-29T09:05:59;16.95;50.28
71173;DHT22;58875;51.996;4.504;2023-05-29T09:08:29;16.95;50.74
71173;DHT22;58875;51.996;4.504;2023-05-29T09:10:55;17.08;51.95
71173;DHT22;58875;51.996;4.504;2023-05-29T09:13:25;16.95;49.80
71173;DHT22;58875;51.996;4.504;2023-05-29T09:15:58;16.79;51.16
71173;DHT22;58875;51.996;4.504;2023-05-29T09:18:31;16.79;50.21
71173;DHT22;58875;51.996;4.504;2023-05-29T09:20:57;16.76;51.17
71173;DHT22;58875;51.996;4.504;2023-05-29T09:23:25;17.00;52.83
71173;DHT22;58875;51.996;4.504;2023-05-29T09:25:53;17.20;49.70
71173;DHT22;58875;51.996;4.504;2023-05-29T09:28:21;17.41;49.17
71173;DHT22;58875;51.996;4.504;2023-05-29T09:30:49;16.99;50.90
71173;DHT22;58875;51.996;4.504;2023-05-29T09:33:15;17.22;50.52
71173;DHT22;58875;51.996;4.504;2023-05-29T09:35:48;17.46;49.31
71173;DHT22;58875;51.996;4.504;2023-05-29T09:38:19;17.66;50.17
71173;DHT22;58875;51.996;4.504;2023-05-29T09:40:45;17.12;49.18
71173;DHT22;58875;51.996;4.504;2023-05-29T09:43:16;16.76;50.04
71173;DHT22;58875;51.996;4.504;2023-05-29T09:45:49;17.10;50.08
71173;DHT22;58875;51.996;4.504;2023-05-29T09:48:22;17.56;51.07
71173;DHT22;58875;51.996;4.504;2023-05-29T09:50:48;17.56;49.43
71173;DHT22;58875;51.996;4.504;2023-05-29T09:53:21;17.35;51.76
71173;DHT22;58875;51.996;4.504;2023-05-29T09:55:53;17.55;51.67
71173;DHT22;58875;51.996;4.504;2023-05-29T09:58:23;17.83;49.32
71173;DHT22;58875;51.996;4.504;2023-05-29T10:00:51;18.00;51.02
71173;DHT22;58875;51.996;4.504;2023-05-29T10:03:17;18.02;48.80
71173;DHT22;58875;51.996;4.504;2023-05-29T10:05:47;18.09;49.09
71173;DHT22;58875;51.996;4.504;2023-05-29T10:08:15;18.12;47.21
71173;DHT22;58875;51.996;4.504;2023-05-29T10:11:01;17.90;47.45
71173;DHT22;58875;51.996;4.504;2023-05-29T10:13:31;18.07;47.62
71173;DHT22;58875;51.996;4.504;2023-05-29T10:16:01;18.20;47.35
71173;DHT22;58875;51.996;4.504;2023-05-29T10:18:38;18.27;46.80
71173;DHT22;58875;51.996;4.504;2023-05-29T10:21:07;18.20;45.66
71173;DHT22;58875;51.996;4.504;2023-05-29T10:23:36;18.24;46.77
71173;DHT22;58875;51.996;4.504;2023-05-29T10:26:19;18.27;46.56
71173;DHT22;58875;51.996;4.504;2023-05-29T10:28:59;18.24;47.01
71173;DHT22;58875;51.996;4.504;2023-05-29T10:31:33;18.23;47.86
71173;DHT22;58875;51.996;4.504;2023-05-29T10:34:18;18.23;48.46
71173;DHT22;58875;51.996;4.504;2023-05-29T10:36:56;18.24;48.79
71173;DHT22;58875;51.996;4.504;2023-05-29T10:39:23;18.31;46.55
71173;DHT22;58875;51.996;4.504;2023-05-29T10:41:49;17.92;47.74
71173;DHT22;58875;51.996;4.504;2023-05-29T10:49:23;18.36;48.53
71173;DHT22;58875;51.996;4.504;2023-05-29T10:51:50;18.81;46.64
71173;DHT22;58875;51.996;4.504;2023-05-29T10:54:21;18.88;46.42
71173;DHT22;58875;51.996;4.504;2023-05-29T10:56:57;19.03;45.39
71173;DHT22;58875;51.996;4.504;2023-05-29T10:59:23;19.11;46.17
71173;DHT22;58875;51.996;4.504;2023-05-29T11:01:53;19.03;45.38
71173;DHT22;58875;51.996;4.504;2023-05-29T11:06:49;18.60;46.04
71173;DHT22;58875;51.996;4.504;2023-05-29T11:09:36;18.02;47.58
71173;DHT22;58875;51.996;4.504;2023-05-29T11:12:25;18.53;46.38
71173;DHT22;58875;51.996;4.504;2023-05-29T11:15:11;18.69;46.03
71173;DHT22;58875;51.996;4.504;2023-05-29T11:20:16;18.31;45.73
71173;DHT22;58875;51.996;4.504;2023-05-29T11:25:26;18.64;46.08
71173;DHT22;58875;51.996;4.504;2023-05-29T11:27:52;18.29;44.75
71173;DHT22;58875;51.996;4.504;2023-05-29T11:30:21;18.58;45.86
71173;DHT22;58875;51.996;4.504;2023-05-29T11:32:48;18.84;41.41
71173;DHT22;58875;51.996;4.504;2023-05-29T11:35:14;18.45;43.39
71173;DHT22;58875;51.996;4.504;2023-05-29T11:37:42;18.64;44.07
71173;DHT22;58875;51.996;4.504;2023-05-29T11:40:09;19.11;44.90
71173;DHT22;58875;51.996;4.504;2023-05-29T11:42:35;19.27;42.06
71173;DHT22;58875;51.996;4.504;2023-05-29T11:45:21;19.33;41.99
71173;DHT22;58875;51.996;4.504;2023-05-29T11:47:51;19.20;43.00
71173;DHT22;58875;51.996;4.504;2023-05-29T11:50:18;19.22;43.22
71173;DHT22;58875;51.996;4.504;2023-05-29T11:52:47;19.26;44.43
71173;DHT22;58875;51.996;4.504;2023-05-29T11:55:13;19.34;44.14
71173;DHT22;58875;51.996;4.504;2023-05-29T11:57:38;19.40;42.73
71173;DHT22;58875;51.996;4.504;2023-05-29T12:00:04;19.66;43.90
71173;DHT22;58875;51.996;4.504;2023-05-29T12:02:33;19.74;43.41
71173;DHT22;58875;51.996;4.504;2023-05-29T12:05:03;19.54;41.90
71173;DHT22;58875;51.996;4.504;2023-05-29T12:07:30;19.57;42.47
71173;DHT22;58875;51.996;4.504;2023-05-29T12:09:55;19.45;41.58
71173;DHT22;58875;51.996;4.504;2023-05-29T12:12:23;19.03;42.69
71173;DHT22;58875;51.996;4.504;2023-05-29T12:14:52;19.13;43.30
71173;DHT22;58875;51.996;4.504;2023-05-29T12:17:20;19.29;41.59
71173;DHT22;58875;51.996;4.504;2023-05-29T12:19:46;19.66;41.98
71173;DHT22;58875;51.996;4.504;2023-05-29T12:22:12;19.88;40.01
71173;DHT22;58875;51.996;4.504;2023-05-29T12:24:37;19.85;41.23
71173;DHT22;58875;51.996;4.504;2023-05-29T12:27:07;20.20;39.96
71173;DHT22;58875;51.996;4.504;2023-05-29T12:29:34;19.67;41.35
71173;DHT22;58875;51.996;4.504;2023-05-29T12:31:59;19.77;40.97
71173;DHT22;58875;51.996;4.504;2023-05-29T12:34:25;19.84;39.39
71173;DHT22;58875;51.996;4.504;2023-05-29T12:36:51;20.15;38.17
71173;DHT22;58875;51.996;4.504;2023-05-29T12:39:16;19.60;38.95
71173;DHT22;58875;51.996;4.504;2023-05-29T12:41:42;19.64;40.89
71173;DHT22;58875;51.996;4.504;2023-05-29T12:44:07;19.23;38.92
71173;DHT22;58875;51.996;4.504;2023-05-29T12:46:40;18.74;41.81
71173;DHT22;58875;51.996;4.504;2023-05-29T12:49:15;18.24;41.98
71173;DHT22;58875;51.996;4.504;2023-05-29T12:51:42;18.44;43.53
71173;DHT22;58875;51.996;4.504;2023-05-29T12:54:10;18.71;44.59
71173;DHT22;58875;51.996;4.504;2023-05-29T12:56:37;18.78;45.04
71173;DHT22;58875;51.996;4.504;2023-05-29T12:59:06;18.91;44.37
71173;DHT22;58875;51.996;4.504;2023-05-29T13:01:32;18.78;45.75
71173;DHT22;58875;51.996;4.504;2023-05-29T13:03:58;18.98;45.02
71173;DHT22;58875;51.996;4.504;2023-05-29T13:06:23;18.84;44.58
71173;DHT22;58875;51.996;4.504;2023-05-29T13:08:49;18.75;45.60
71173;DHT22;58875;51.996;4.504;2023-05-29T13:11:15;18.69;47.94
71173;DHT22;58875;51.996;4.504;2023-05-29T13:13:43;18.65;46.04
71173;DHT22;58875;51.996;4.504;2023-05-29T13:16:09;18.38;45.41
71173;DHT22;58875;51.996;4.504;2023-05-29T13:18:35;18.69;42.00
71173;DHT22;58875;51.996;4.504;2023-05-29T13:21:00;19.03;41.57
71173;DHT22;58875;51.996;4.504;2023-05-29T13:23:26;18.96;41.82
71173;DHT22;58875;51.996;4.504;2023-05-29T13:25:51;19.18;42.86
71173;DHT22;58875;51.996;4.504;2023-05-29T13:28:17;19.27;41.85
71173;DHT22;58875;51.996;4.504;2023-05-29T13:30:44;19.08;45.63
71173;DHT22;58875;51.996;4.504;2023-05-29T13:33:09;18.98;45.00
71173;DHT22;58875;51.996;4.504;2023-05-29T13:35:36;19.08;43.31
71173;DHT22;58875;51.996;4.504;2023-05-29T13:38:01;19.15;42.75
71173;DHT22;58875;51.996;4.504;2023-05-29T13:40:30;19.03;43.84
71173;DHT22;58875;51.996;4.504;2023-05-29T13:42:57;19.36;44.75
71173;DHT22;58875;51.996;4.504;2023-05-29T13:45:22;19.77;42.75
71173;DHT22;58875;51.996;4.504;2023-05-29T13:47:48;19.90;42.78
71173;DHT22;58875;51.996;4.504;2023-05-29T13:50:14;20.29;42.89
71173;DHT22;58875;51.996;4.504;2023-05-29T13:52:39;19.81;43.62
71173;DHT22;58875;51.996;4.504;2023-05-29T13:55:05;19.63;44.32
71173;DHT22;58875;51.996;4.504;2023-05-29T13:57:34;19.77;45.03
71173;DHT22;58875;51.996;4.504;2023-05-29T14:00:00;19.88;44.45
71173;DHT22;58875;51.996;4.504;2023-05-29T14:02:26;19.75;43.61
71173;DHT22;58875;51.996;4.504;2023-05-29T14:04:51;19.78;43.70
71173;DHT22;58875;51.996;4.504;2023-05-29T14:07:17;19.63;39.17
71173;DHT22;58875;51.996;4.504;2023-05-29T14:09:43;19.33;43.14
71173;DHT22;58875;51.996;4.504;2023-05-29T14:12:08;19.36;43.46
71173;DHT22;58875;51.996;4.504;2023-05-29T14:14:34;19.12;40.63
71173;DHT22;58875;51.996;4.504;2023-05-29T14:17:00;19.26;41.35
71173;DHT22;58875;51.996;4.504;2023-05-29T14:19:26;19.13;41.25
71173;DHT22;58875;51.996;4.504;2023-05-29T14:21:52;19.25;39.63
71173;DHT22;58875;51.996;4.504;2023-05-29T14:24:18;19.50;40.32
71173;DHT22;58875;51.996;4.504;2023-05-29T14:26:44;19.83;38.85
71173;DHT22;58875;51.996;4.504;2023-05-29T14:29:13;19.40;39.79
71173;DHT22;58875;51.996;4.504;2023-05-29T14:31:43;19.03;40.22
71173;DHT22;58875;51.996;4.504;2023-05-29T14:34:09;19.23;42.61
71173;DHT22;58875;51.996;4.504;2023-05-29T14:36:35;19.05;39.29
71173;DHT22;58875;51.996;4.504;2023-05-29T14:39:03;18.78;40.60
71173;DHT22;58875;51.996;4.504;2023-05-29T14:41:28;19.12;41.80
71173;DHT22;58875;51.996;4.504;2023-05-29T14:43:54;19.19;40.93
71173;DHT22;58875;51.996;4.504;2023-05-29T14:46:24;19.27;40.58
71173;DHT22;58875;51.996;4.504;2023-05-29T14:48:50;19.20;39.05
71173;DHT22;58875;51.996;4.504;2023-05-29T14:51:15;18.99;40.97
71173;DHT22;58875;51.996;4.504;2023-05-29T14:53:42;19.06;41.29
71173;DHT22;58875;51.996;4.504;2023-05-29T14:56:08;19.16;43.03
71173;DHT22;58875;51.996;4.504;2023-05-29T14:58:33;19.19;41.78
71173;DHT22;58875;51.996;4.504;2023-05-29T15:00:59;19.34;41.55
71173;DHT22;58875;51.996;4.504;2023-05-29T15:03:25;19.83;41.34
71173;DHT22;58875;51.996;4.504;2023-05-29T15:05:52;19.43;41.60
71173;DHT22;58875;51.996;4.504;2023-05-29T15:08:18;19.27;41.40
71173;DHT22;58875;51.996;4.504;2023-05-29T15:10:44;19.40;40.36
71173;DHT22;58875;51.996;4.504;2023-05-29T15:13:10;19.30;40.73
71173;DHT22;58875;51.996;4.504;2023-05-29T15:15:35;18.84;41.60
71173;DHT22;58875;51.996;4.504;2023-05-29T15:18:01;18.53;43.36
71173;DHT22;58875;51.996;4.504;2023-05-29T15:20:27;18.51;41.29
71173;DHT22;58875;51.996;4.504;2023-05-29T15:22:53;18.51;40.93
71173;DHT22;58875;51.996;4.504;2023-05-29T15:25:19;18.72;42.82
71173;DHT22;58875;51.996;4.504;2023-05-29T15:27:45;19.22;42.22
71173;DHT22;58875;51.996;4.504;2023-05-29T15:30:17;19.27;42.79
71173;DHT22;58875;51.996;4.504;2023-05-29T15:32:44;19.32;40.87
71173;DHT22;58875;51.996;4.504;2023-05-29T15:35:13;19.39;42.84
71173;DHT22;58875;51.996;4.504;2023-05-29T15:37:39;19.56;43.27
71173;DHT22;58875;51.996;4.504;2023-05-29T15:40:06;19.56;42.59
71173;DHT22;58875;51.996;4.504;2023-05-29T15:42:32;19.26;42.84
71173;DHT22;58875;51.996;4.504;2023-05-29T15:44:58;19.19;44.09
71173;DHT22;58875;51.996;4.504;2023-05-29T15:47:24;19.34;45.11
71173;DHT22;58875;51.996;4.504;2023-05-29T15:49:51;19.30;43.09